createdAt,value
2019-06-27T00:08:15.881Z,101632.70
2019-06-27T00:16:34.550Z,101633.53
2019-06-27T00:24:53.237Z,101638.33
2019-06-27T00:33:11.890Z,101654.53
2019-06-27T00:41:30.578Z,101674.95
2019-06-27T00:49:49.268Z,101674.73
2019-06-27T00:58:07.930Z,101687.05
2019-06-27T01:06:26.628Z,101685.70
2019-06-27T01:14:45.289Z,101698.47
2019-06-27T01:23:04.012Z,101706.69
2019-06-27T01:31:22.715Z,101714.12
2019-06-27T01:39:41.367Z,101720.41
2019-06-27T01:48:00.010Z,101732.41
2019-06-27T01:56:18.688Z,101734.38
2019-06-27T02:04:37.854Z,101748.30
2019-06-27T02:12:56.515Z,101749.26
2019-06-27T02:21:15.260Z,101759.64
2019-06-27T02:29:33.907Z,101763.70
2019-06-27T02:37:52.590Z,101757.39
2019-06-27T02:46:11.367Z,101756.92
2019-06-27T02:54:30.287Z,101767.25
2019-06-27T03:02:48.939Z,101774.02
2019-06-27T03:11:07.686Z,101786.36
2019-06-27T03:19:26.458Z,101783.95
2019-06-27T03:27:45.140Z,101784.93
2019-06-27T03:36:03.887Z,101793.92
2019-06-27T03:44:23.033Z,101799.95
2019-06-27T03:52:41.818Z,101806.61
2019-06-27T04:01:00.515Z,101821.20
2019-06-27T04:09:19.196Z,101825.71
2019-06-27T04:17:37.884Z,101830.73
2019-06-27T04:25:56.647Z,101843.86
2019-06-27T04:34:19.578Z,101856.02
2019-06-27T04:42:35.750Z,101836.04
2019-06-27T04:50:54.520Z,101851.97
2019-06-27T04:59:13.242Z,101849.03
2019-06-27T05:07:31.928Z,101848.16
2019-06-27T05:15:50.596Z,101855.14
2019-06-27T05:24:09.338Z,101852.25
2019-06-27T05:32:28.074Z,101844.70
2019-06-27T05:40:46.777Z,101849.41
2019-06-27T05:49:05.530Z,101845.70
2019-06-27T05:57:24.352Z,101857.95
2019-06-27T06:05:43.302Z,101862.35
2019-06-27T06:14:02.066Z,101872.97
2019-06-27T06:22:20.917Z,101873.05
2019-06-27T06:30:44.446Z,101869.45
2019-06-27T06:39:00.211Z,101876.03
2019-06-27T06:47:18.917Z,101871.66
2019-06-27T06:55:37.921Z,101869.76
2019-06-27T07:03:57.166Z,101869.20
2019-06-27T07:12:15.872Z,101881.47
2019-06-27T07:20:34.602Z,101870.52
2019-06-27T07:28:53.485Z,101877.84
2019-06-27T07:37:12.161Z,101882.31
2019-06-27T07:45:30.902Z,101894.13
2019-06-27T07:53:49.557Z,101897.52
2019-06-27T08:02:08.265Z,101896.95
2019-06-27T08:10:26.980Z,101898.95
2019-06-27T08:18:45.687Z,101889.96
2019-06-27T08:27:04.503Z,101894.47
2019-06-27T08:35:23.215Z,101890.78
2019-06-27T08:43:41.928Z,101896.05
2019-06-27T08:52:00.682Z,101882.97
2019-06-27T09:00:19.706Z,101889.75
2019-06-27T09:08:38.403Z,101878.20
2019-06-27T09:16:57.079Z,101873.30
2019-06-27T09:25:16.576Z,101857.75
2019-06-27T09:33:35.273Z,101864.09
2019-06-27T09:41:53.991Z,101863.59
2019-06-27T09:50:13.159Z,101864.44
2019-06-27T09:58:31.801Z,101871.08
2019-06-27T10:06:50.602Z,101853.59
2019-06-27T10:15:10.562Z,101851.48
2019-06-27T10:23:29.243Z,101857.56
2019-06-27T10:31:47.964Z,101859.78
2019-06-27T10:40:58.487Z,101856.95
2019-06-27T10:49:17.125Z,101859.50
2019-06-27T10:57:35.846Z,101857.94
2019-06-27T11:05:54.555Z,101840.08
2019-06-27T11:23:20.232Z,101838.23
2019-06-27T11:31:39.634Z,101841.71
2019-06-27T11:39:58.316Z,101834.36
2019-06-27T11:48:17.275Z,101822.43
2019-06-27T11:56:36.076Z,101825.78
2019-06-27T12:04:54.781Z,101807.88
2019-06-27T12:13:13.547Z,101796.09
2019-06-27T12:21:32.232Z,101791.66
2019-06-27T12:29:50.966Z,101780.48
2019-06-27T12:38:09.630Z,101776.25
2019-06-27T12:46:28.285Z,101771.59
2019-06-27T12:54:46.971Z,101765.19
2019-06-27T13:03:05.699Z,101760.81
2019-06-27T13:11:24.462Z,101743.31
2019-06-27T13:19:43.182Z,101736.77
2019-06-27T13:28:01.864Z,101724.52
2019-06-27T13:36:20.528Z,101717.81
2019-06-27T13:44:39.182Z,101713.19
2019-06-27T13:52:57.878Z,101701.13
2019-06-27T14:01:17.252Z,101703.97
2019-06-27T14:09:51.061Z,101708.18
2019-06-27T14:17:56.481Z,101681.03
2019-06-27T14:26:15.282Z,101682.33
2019-06-27T14:34:33.940Z,101681.53
2019-06-27T14:42:52.635Z,101669.19
2019-06-27T14:51:11.285Z,101678.69
2019-06-27T14:59:42.061Z,101674.16
2019-06-27T15:08:00.734Z,101649.44
2019-06-27T15:16:20.301Z,101651.95
2019-06-27T15:24:39.297Z,101619.14
2019-06-27T15:32:58.098Z,101619.14
2019-06-27T15:41:16.777Z,101627.92
2019-06-27T15:49:35.449Z,101622.47
2019-06-27T15:57:54.115Z,101626.23
2019-06-27T16:06:15.059Z,101618.97
2019-06-27T16:14:33.206Z,101613.02
2019-06-27T16:22:51.883Z,101618.67
2019-06-27T16:31:10.572Z,101614.58
2019-06-27T16:39:29.260Z,101626.59
2019-06-27T16:47:48.001Z,101633.19
2019-06-27T16:56:06.764Z,101622.01
2019-06-27T17:04:25.480Z,101625.06
2019-06-27T17:12:44.397Z,101625.61
2019-06-27T17:21:03.056Z,101632.76
2019-06-27T17:29:22.044Z,101631.83
2019-06-27T17:37:40.721Z,101634.88
2019-06-27T17:45:59.424Z,101643.14
2019-06-27T17:54:18.064Z,101638.64
2019-06-27T18:02:36.950Z,101657.56
2019-06-27T18:10:55.642Z,101651.01
2019-06-27T18:19:14.318Z,101662.81
2019-06-27T18:27:33.051Z,101666.27
2019-06-27T18:35:51.779Z,101660.95
2019-06-27T18:44:10.483Z,101668.48
2019-06-27T18:52:29.235Z,101674.71
2019-06-27T19:00:48.173Z,101683.24
2019-06-27T19:09:07.891Z,101686.24
2019-06-27T19:17:26.889Z,101686.39
2019-06-27T19:25:46.809Z,101707.17
2019-06-27T19:34:05.558Z,101715.38
2019-06-27T19:42:24.290Z,101724.78
2019-06-27T19:50:43.065Z,101749.19
2019-06-27T19:59:01.830Z,101763.37
2019-06-27T20:07:20.770Z,101777.05
2019-06-27T20:15:39.612Z,101779.09
2019-06-27T20:23:58.382Z,101784.48
2019-06-27T20:32:17.145Z,101790.00
2019-06-27T20:40:35.823Z,101803.77
2019-06-27T20:48:54.526Z,101805.85
2019-06-27T20:57:13.208Z,101816.02
2019-06-27T21:05:32.137Z,101820.19
2019-06-27T21:13:50.827Z,101826.66
2019-06-27T21:22:10.080Z,101838.73
2019-06-27T21:30:29.072Z,101842.31
2019-06-27T21:38:47.755Z,101848.33
2019-06-27T21:47:06.425Z,101853.39
2019-06-27T21:55:25.180Z,101851.33
2019-06-27T22:03:43.883Z,101854.13
2019-06-27T22:12:02.757Z,101857.52
2019-06-27T22:20:21.798Z,101858.32
2019-06-27T22:28:40.786Z,101862.45
2019-06-27T22:37:03.449Z,101865.16
2019-06-27T22:45:40.099Z,101871.93
2019-06-27T22:54:02.287Z,101873.27
2019-06-27T23:02:21.065Z,101866.44
2019-06-27T23:10:39.785Z,101874.08
2019-06-27T23:18:58.471Z,101880.50
2019-06-27T23:27:17.133Z,101878.47
2019-06-27T23:35:35.891Z,101875.37
2019-06-27T23:43:54.581Z,101878.31
2019-06-27T23:52:13.266Z,101871.48
